createdAt,value
2022-08-10T00:01:51.663Z,19.30
2022-08-10T00:04:22.078Z,19.30
2022-08-10T00:06:54.599Z,19.30
2022-08-10T00:09:22.718Z,19.20
2022-08-10T00:11:50.701Z,19.20
2022-08-10T00:14:18.247Z,19.20
2022-08-10T00:16:45.765Z,19.10
2022-08-10T00:19:16.484Z,19.10
2022-08-10T00:21:45.888Z,19.10
2022-08-10T00:24:13.654Z,19.10
2022-08-10T00:27:51.741Z,19.00
2022-08-10T00:29:28.992Z,18.90
2022-08-10T00:31:59.159Z,18.90
2022-08-10T00:34:28.268Z,18.90
2022-08-10T00:36:56.154Z,18.80
2022-08-10T00:39:23.681Z,18.40
2022-08-10T00:42:02.304Z,18.80
2022-08-10T00:44:40.080Z,18.40
2022-08-10T00:47:35.466Z,18.80
2022-08-10T00:49:56.135Z,18.80
2022-08-10T00:52:25.183Z,18.70
2022-08-10T00:54:53.103Z,18.70
2022-08-10T00:57:21.240Z,18.70
2022-08-10T00:59:58.100Z,18.70
2022-08-10T01:02:29.620Z,18.60
2022-08-10T01:05:02.640Z,18.60
2022-08-10T01:08:15.506Z,18.60
2022-08-10T01:12:28.689Z,18.60
2022-08-10T01:14:16.383Z,18.50
2022-08-10T01:16:51.424Z,18.60
2022-08-10T01:19:52.930Z,18.90
2022-08-10T01:22:52.766Z,18.40
2022-08-10T01:26:11.838Z,18.40
2022-08-10T01:28:47.553Z,17.90
2022-08-10T01:31:20.370Z,18.30
2022-08-10T01:33:58.517Z,18.70
2022-08-10T01:36:38.445Z,18.20
2022-08-10T01:39:07.795Z,18.20
2022-08-10T01:41:46.193Z,18.20
2022-08-10T01:44:20.170Z,18.20
2022-08-10T01:46:56.717Z,18.10
2022-08-10T01:49:26.330Z,18.10
2022-08-10T01:52:00.525Z,18.00
2022-08-10T01:54:30.189Z,18.10
2022-08-10T01:57:00.456Z,18.00
2022-08-10T01:59:40.208Z,18.00
2022-08-10T02:02:14.184Z,17.90
2022-08-10T02:04:46.031Z,18.00
2022-08-10T02:07:23.508Z,17.90
2022-08-10T02:09:58.895Z,18.00
2022-08-10T02:12:30.023Z,17.90
2022-08-10T02:15:01.782Z,18.00
2022-08-10T02:17:58.492Z,18.90
2022-08-10T02:20:27.497Z,17.90
2022-08-10T02:23:25.411Z,17.80
2022-08-10T02:25:56.223Z,17.80
2022-08-10T02:28:29.943Z,17.80
2022-08-10T02:31:18.373Z,17.80
2022-08-10T02:33:56.902Z,17.80
2022-08-10T02:36:29.487Z,17.60
2022-08-10T02:39:01.121Z,17.70
2022-08-10T02:45:13.341Z,18.20
2022-08-10T02:45:18.088Z,17.70
2022-08-10T02:47:29.985Z,17.50
2022-08-10T02:50:25.664Z,17.60
2022-08-10T02:53:06.679Z,17.50
2022-08-10T02:55:38.617Z,17.50
2022-08-10T02:58:18.128Z,17.50
2022-08-10T03:00:55.599Z,18.40
2022-08-10T03:03:26.690Z,17.50
2022-08-10T03:05:59.664Z,17.40
2022-08-10T03:08:33.926Z,17.40
2022-08-10T03:11:03.947Z,17.30
2022-08-10T03:13:33.692Z,17.40
2022-08-10T03:16:02.650Z,17.30
2022-08-10T03:18:32.119Z,17.30
2022-08-10T03:21:00.645Z,17.30
2022-08-10T03:23:29.122Z,17.30
2022-08-10T03:25:59.091Z,17.30
2022-08-10T03:28:29.153Z,17.20
2022-08-10T03:30:58.218Z,17.20
2022-08-10T03:33:29.958Z,17.10
2022-08-10T03:36:41.485Z,17.20
2022-08-10T03:38:48.653Z,17.00
2022-08-10T03:41:18.261Z,17.60
2022-08-10T03:43:48.955Z,16.90
2022-08-10T03:46:19.618Z,17.40
2022-08-10T03:48:50.148Z,17.10
2022-08-10T03:51:21.898Z,17.10
2022-08-10T03:54:05.496Z,17.10
2022-08-10T03:56:39.966Z,17.30
2022-08-10T03:59:15.692Z,17.00
2022-08-10T04:02:46.226Z,17.00
2022-08-10T04:04:33.167Z,17.00
2022-08-10T04:07:01.289Z,17.00
2022-08-10T04:09:53.620Z,17.00
2022-08-10T04:12:21.490Z,17.00
2022-08-10T04:14:51.971Z,16.90
2022-08-10T04:17:59.320Z,16.90
2022-08-10T04:20:25.547Z,16.90
2022-08-10T04:23:01.373Z,16.90
2022-08-10T04:25:29.576Z,16.90
2022-08-10T04:27:57.918Z,16.80
2022-08-10T04:30:27.932Z,17.00
2022-08-10T04:32:56.827Z,17.90
2022-08-10T04:35:26.174Z,16.90
2022-08-10T04:37:55.841Z,16.90
2022-08-10T04:40:28.587Z,17.50
2022-08-10T04:43:11.203Z,16.90
2022-08-10T04:45:49.357Z,17.00
2022-08-10T04:48:42.400Z,16.90
2022-08-10T04:51:18.896Z,17.00
2022-08-10T04:54:02.602Z,17.00
2022-08-10T04:56:39.028Z,17.00
2022-08-10T04:59:11.107Z,18.20
2022-08-10T05:02:28.294Z,17.00
2022-08-10T05:04:36.054Z,17.00
2022-08-10T05:07:11.326Z,17.00
2022-08-10T05:10:02.648Z,17.20
2022-08-10T05:12:38.481Z,17.00
2022-08-10T05:15:08.166Z,18.10
2022-08-10T05:17:36.447Z,17.20
2022-08-10T05:20:09.150Z,16.60
2022-08-10T05:22:41.699Z,17.10
2022-08-10T05:25:12.361Z,17.20
2022-08-10T05:27:41.223Z,17.40
2022-08-10T05:30:11.361Z,17.30
2022-08-10T05:32:56.599Z,17.30
2022-08-10T05:35:26.344Z,17.30
2022-08-10T05:38:12.019Z,17.40
2022-08-10T05:40:47.372Z,17.40
2022-08-10T05:43:20.141Z,17.50
2022-08-10T05:46:19.938Z,17.50
2022-08-10T05:48:55.715Z,17.60
2022-08-10T05:51:26.068Z,15.50
2022-08-10T05:54:00.959Z,17.70
2022-08-10T05:56:55.641Z,17.70
2022-08-10T06:00:10.794Z,17.80
2022-08-10T06:02:31.545Z,18.00
2022-08-10T06:05:03.642Z,18.00
2022-08-10T06:07:31.598Z,18.20
2022-08-10T06:10:01.700Z,18.30
2022-08-10T06:12:36.427Z,18.40
2022-08-10T06:15:21.659Z,19.60
2022-08-10T06:18:01.870Z,18.70
2022-08-10T06:20:35.476Z,18.80
2022-08-10T06:23:04.477Z,19.00
2022-08-10T06:26:08.647Z,19.00
2022-08-10T06:28:22.244Z,19.10
2022-08-10T06:30:51.909Z,19.20
2022-08-10T06:33:22.356Z,19.30
2022-08-10T06:35:53.990Z,19.40
2022-08-10T06:38:24.518Z,19.40
2022-08-10T06:40:57.023Z,19.50
2022-08-10T06:43:26.487Z,19.60
2022-08-10T06:46:06.795Z,19.70
2022-08-10T06:48:41.618Z,19.80
2022-08-10T06:51:15.434Z,19.90
2022-08-10T06:53:52.824Z,20.00
2022-08-10T06:56:36.687Z,20.10
2022-08-10T06:59:21.455Z,20.20
2022-08-10T07:02:00.942Z,20.30
2022-08-10T07:04:34.078Z,20.50
2022-08-10T07:07:04.320Z,20.60
2022-08-10T07:09:35.772Z,20.70
2022-08-10T07:12:08.024Z,20.80
2022-08-10T07:14:42.441Z,20.80
2022-08-10T07:17:15.286Z,20.90
2022-08-10T07:19:49.849Z,21.00
2022-08-10T07:23:01.783Z,21.10
2022-08-10T07:25:14.236Z,21.20
2022-08-10T07:28:00.022Z,21.30
2022-08-10T07:30:31.554Z,21.50
2022-08-10T07:33:01.497Z,21.60
2022-08-10T07:35:41.461Z,21.60
2022-08-10T07:38:18.195Z,21.70
2022-08-10T07:40:48.935Z,21.80
2022-08-10T07:43:18.857Z,21.90
2022-08-10T07:45:47.677Z,22.00
2022-08-10T07:48:28.898Z,22.10
2022-08-10T07:51:00.202Z,22.10
2022-08-10T07:53:33.828Z,22.20
2022-08-10T07:56:13.217Z,20.80
2022-08-10T07:58:55.842Z,22.40
2022-08-10T08:01:29.173Z,22.40
2022-08-10T08:04:05.614Z,22.50
2022-08-10T08:06:40.655Z,22.60
2022-08-10T08:09:08.551Z,22.70
2022-08-10T08:11:37.958Z,22.70
2022-08-10T08:14:07.935Z,22.80
2022-08-10T08:16:38.507Z,22.90
2022-08-10T08:24:08.804Z,23.10
2022-08-10T08:24:44.417Z,23.30
2022-08-10T08:27:19.529Z,23.40
2022-08-10T08:29:48.886Z,23.50
2022-08-10T08:32:22.217Z,23.60
2022-08-10T08:34:54.429Z,23.70
2022-08-10T08:38:32.470Z,23.80
2022-08-10T08:40:16.014Z,23.90
2022-08-10T08:43:31.317Z,24.00
2022-08-10T08:46:28.841Z,24.10
2022-08-10T08:50:07.560Z,24.20
2022-08-10T08:52:18.243Z,24.20
2022-08-10T08:56:03.783Z,24.30
2022-08-10T08:58:47.731Z,24.50
2022-08-10T09:01:40.538Z,24.60
2022-08-10T09:04:39.345Z,24.70
2022-08-10T09:08:00.102Z,24.80
2022-08-10T09:10:37.928Z,23.40
2022-08-10T09:13:10.497Z,24.90
2022-08-10T09:16:07.573Z,25.00
2022-08-10T09:18:53.168Z,25.10
2022-08-10T09:21:51.463Z,25.20
2022-08-10T09:24:35.163Z,25.30
2022-08-10T09:27:11.050Z,25.50
2022-08-10T09:29:47.093Z,25.00
2022-08-10T09:36:14.575Z,25.70
2022-08-10T09:36:20.494Z,25.90
2022-08-10T09:39:08.613Z,25.90
2022-08-10T09:41:44.972Z,26.10
2022-08-10T09:44:29.587Z,26.10
2022-08-10T09:47:58.517Z,26.20
2022-08-10T09:51:09.352Z,26.40
2022-08-10T09:53:52.591Z,26.50
2022-08-10T09:56:48.010Z,26.60
2022-08-10T10:00:01.446Z,26.70
2022-08-10T10:02:39.160Z,26.80
2022-08-10T10:05:27.618Z,27.00
2022-08-10T10:08:13.381Z,27.10
2022-08-10T10:11:07.757Z,27.20
2022-08-10T10:14:03.022Z,27.20
2022-08-10T10:16:37.746Z,27.30
2022-08-10T10:19:31.158Z,27.30
2022-08-10T10:22:36.908Z,27.50
2022-08-10T10:25:51.293Z,27.60
2022-08-10T10:31:54.830Z,27.70
2022-08-10T10:34:30.863Z,26.50
2022-08-10T10:37:00.600Z,28.10
2022-08-10T10:39:29.615Z,28.10
2022-08-10T10:42:14.632Z,28.00
2022-08-10T10:44:51.035Z,28.10
2022-08-10T10:47:46.476Z,28.20
2022-08-10T10:50:23.079Z,28.30
2022-08-10T10:53:14.616Z,28.40
2022-08-10T10:56:14.492Z,28.50
2022-08-10T10:58:49.536Z,28.60
2022-08-10T11:01:41.595Z,28.70
2022-08-10T11:04:29.275Z,28.80
2022-08-10T11:07:14.571Z,28.90
2022-08-10T11:10:32.808Z,29.00
2022-08-10T11:14:26.711Z,29.00
2022-08-10T11:16:22.635Z,29.10
2022-08-10T11:19:13.549Z,29.20
2022-08-10T11:22:02.625Z,29.20
2022-08-10T11:25:07.510Z,29.20
2022-08-10T11:27:48.895Z,29.30
2022-08-10T11:30:25.915Z,29.40
2022-08-10T11:33:30.752Z,29.50
2022-08-10T11:36:05.206Z,29.50
2022-08-10T11:38:57.635Z,29.50
2022-08-10T11:42:08.884Z,29.50
2022-08-10T11:44:40.069Z,29.60
2022-08-10T11:47:16.985Z,29.70
2022-08-10T11:49:51.605Z,29.80
2022-08-10T11:52:41.829Z,29.80
2022-08-10T11:55:15.715Z,29.80
2022-08-10T11:57:54.111Z,29.90
2022-08-10T12:00:25.078Z,29.90
2022-08-10T12:03:02.099Z,30.00
2022-08-10T12:05:54.774Z,30.00
2022-08-10T12:10:02.499Z,30.10
2022-08-10T12:11:26.427Z,30.10
2022-08-10T12:14:21.821Z,30.10
2022-08-10T12:17:10.314Z,30.10
2022-08-10T12:19:59.733Z,30.10
2022-08-10T12:22:48.753Z,30.20
2022-08-10T12:25:55.995Z,30.20
2022-08-10T12:28:20.272Z,30.30
2022-08-10T12:30:52.544Z,30.30
2022-08-10T12:34:02.672Z,30.40
2022-08-10T12:36:38.227Z,30.40
2022-08-10T12:39:27.952Z,30.30
2022-08-10T12:42:37.043Z,30.40
2022-08-10T12:45:23.750Z,30.50
2022-08-10T12:48:08.249Z,30.50
2022-08-10T12:50:56.353Z,30.50
2022-08-10T12:54:00.833Z,30.50
2022-08-10T12:56:33.960Z,30.60
2022-08-10T12:59:10.924Z,30.60
2022-08-10T13:02:06.498Z,30.70
2022-08-10T13:04:34.990Z,30.70
2022-08-10T13:07:04.724Z,30.80
2022-08-10T13:09:33.692Z,30.80
2022-08-10T13:12:38.825Z,30.80
2022-08-10T13:15:44.530Z,30.80
2022-08-10T13:18:05.583Z,30.90
2022-08-10T13:20:38.849Z,30.90
2022-08-10T13:23:13.198Z,31.00
2022-08-10T13:25:45.508Z,31.00
2022-08-10T13:28:35.318Z,31.00
2022-08-10T13:31:11.266Z,31.00
2022-08-10T13:34:41.704Z,31.10
2022-08-10T13:36:38.688Z,31.10
2022-08-10T13:39:07.399Z,31.10
2022-08-10T13:41:46.860Z,31.10
2022-08-10T13:44:28.915Z,31.20
2022-08-10T13:46:57.861Z,31.20
2022-08-10T13:49:27.005Z,31.20
2022-08-10T13:51:58.380Z,31.20
2022-08-10T13:54:38.710Z,31.20
2022-08-10T13:57:06.807Z,31.30
2022-08-10T14:00:35.305Z,31.30
2022-08-10T14:02:32.981Z,31.40
2022-08-10T14:05:02.208Z,31.40
2022-08-10T14:07:31.773Z,31.40
2022-08-10T14:10:07.629Z,31.40
2022-08-10T14:12:41.690Z,31.40
2022-08-10T14:15:17.500Z,31.50
2022-08-10T14:17:55.682Z,31.60
2022-08-10T14:20:34.116Z,31.60
2022-08-10T14:23:02.505Z,31.60
2022-08-10T14:25:33.509Z,31.60
2022-08-10T14:28:04.025Z,31.60
2022-08-10T14:30:33.034Z,31.60
2022-08-10T14:33:04.641Z,31.60
2022-08-10T14:36:20.170Z,31.60
2022-08-10T14:38:33.347Z,31.60
2022-08-10T14:41:03.954Z,31.70
2022-08-10T14:43:39.670Z,31.70
2022-08-10T14:46:11.038Z,31.70
2022-08-10T14:48:41.456Z,31.70
2022-08-10T14:51:12.762Z,31.70
2022-08-10T14:53:50.435Z,31.70
2022-08-10T14:56:29.877Z,31.70
2022-08-10T14:59:05.794Z,31.70
2022-08-10T15:02:01.373Z,31.70
2022-08-10T15:04:30.470Z,31.70
2022-08-10T15:07:12.241Z,31.60
2022-08-10T15:10:00.394Z,31.60
2022-08-10T15:12:34.339Z,31.60
2022-08-10T15:15:04.777Z,31.60
2022-08-10T15:17:37.156Z,31.60
2022-08-10T15:20:20.427Z,31.60
2022-08-10T15:22:50.868Z,31.60
2022-08-10T15:25:24.943Z,31.60
2022-08-10T15:28:05.324Z,30.90
2022-08-10T15:30:45.287Z,31.50
2022-08-10T15:33:57.709Z,30.10
2022-08-10T15:36:44.911Z,31.50
2022-08-10T15:40:21.876Z,31.40
2022-08-10T15:42:23.726Z,31.50
2022-08-10T15:44:54.083Z,31.40
2022-08-10T15:47:44.999Z,31.40
2022-08-10T15:50:39.867Z,31.30
2022-08-10T15:53:23.439Z,31.40
2022-08-10T15:55:58.776Z,31.40
2022-08-10T15:58:40.147Z,31.30
2022-08-10T16:02:13.197Z,31.20
2022-08-10T16:04:10.763Z,31.20
2022-08-10T16:06:53.559Z,31.20
2022-08-10T16:10:10.570Z,31.10
2022-08-10T16:12:29.487Z,31.10
2022-08-10T16:15:04.485Z,31.00
2022-08-10T16:17:55.740Z,31.00
2022-08-10T16:20:51.439Z,31.10
2022-08-10T16:23:31.039Z,31.00
2022-08-10T16:26:15.074Z,30.90
2022-08-10T16:29:07.212Z,30.90
2022-08-10T16:31:36.818Z,30.80
2022-08-10T16:34:12.345Z,30.80
2022-08-10T16:37:04.797Z,30.70
2022-08-10T16:39:58.356Z,30.80
2022-08-10T16:42:31.659Z,30.70
2022-08-10T16:45:08.954Z,30.60
2022-08-10T16:47:46.605Z,30.60
2022-08-10T16:50:17.343Z,30.50
2022-08-10T16:52:49.304Z,30.50
2022-08-10T16:55:24.574Z,30.50
2022-08-10T16:58:09.317Z,30.40
2022-08-10T17:00:38.696Z,30.30
2022-08-10T17:03:22.924Z,30.30
2022-08-10T17:06:09.653Z,30.30
2022-08-10T17:08:48.398Z,30.20
2022-08-10T17:11:18.577Z,30.20
2022-08-10T17:13:47.170Z,30.20
2022-08-10T17:16:17.143Z,30.20
2022-08-10T17:18:48.121Z,30.10
2022-08-10T17:21:21.670Z,30.00
2022-08-10T17:23:54.727Z,30.00
2022-08-10T17:26:35.709Z,30.00
2022-08-10T17:29:57.642Z,29.90
2022-08-10T17:32:44.330Z,29.80
2022-08-10T17:35:23.433Z,29.80
2022-08-10T17:38:21.675Z,29.70
2022-08-10T17:40:56.393Z,29.60
2022-08-10T17:44:01.285Z,29.40
2022-08-10T17:46:14.586Z,29.30
2022-08-10T17:48:43.545Z,29.40
2022-08-10T17:51:16.518Z,29.30
2022-08-10T17:53:51.980Z,29.10
2022-08-10T17:56:21.087Z,30.60
2022-08-10T17:58:53.826Z,28.90
2022-08-10T18:01:40.554Z,28.90
2022-08-10T18:04:18.040Z,28.70
2022-08-10T18:06:52.066Z,27.70
2022-08-10T18:09:35.606Z,28.60
2022-08-10T18:12:18.033Z,28.50
2022-08-10T18:14:50.147Z,28.40
2022-08-10T18:17:39.194Z,28.40
2022-08-10T18:20:11.026Z,26.10
2022-08-10T18:22:47.237Z,28.40
2022-08-10T18:25:21.310Z,28.20
2022-08-10T18:28:01.732Z,28.10
2022-08-10T18:30:36.418Z,28.00
2022-08-10T18:33:09.190Z,28.00
2022-08-10T18:35:37.681Z,27.90
2022-08-10T18:38:06.783Z,27.80
2022-08-10T18:40:37.544Z,27.80
2022-08-10T18:44:07.309Z,27.80
2022-08-10T18:45:59.926Z,27.70
2022-08-10T18:48:38.690Z,27.50
2022-08-10T18:51:07.695Z,27.60
2022-08-10T18:53:48.453Z,27.50
2022-08-10T18:56:38.019Z,27.40
2022-08-10T19:00:03.548Z,27.30
2022-08-10T19:03:10.216Z,27.30
2022-08-10T19:05:47.827Z,27.20
2022-08-10T19:08:49.213Z,27.10
2022-08-10T19:11:42.460Z,27.00
2022-08-10T19:14:37.290Z,27.00
2022-08-10T19:17:22.663Z,26.90
2022-08-10T19:20:19.463Z,26.80
2022-08-10T19:23:15.168Z,26.70
2022-08-10T19:26:41.181Z,26.60
2022-08-10T19:29:04.940Z,26.50
2022-08-10T19:32:00.077Z,26.40
2022-08-10T19:34:53.638Z,26.40
2022-08-10T19:37:32.608Z,26.30
2022-08-10T19:40:12.199Z,26.20
2022-08-10T19:43:01.933Z,26.20
2022-08-10T19:45:59.128Z,26.10
2022-08-10T19:48:47.743Z,26.10
2022-08-10T19:51:26.314Z,26.00
2022-08-10T19:54:03.071Z,25.90
2022-08-10T19:57:04.912Z,26.10
2022-08-10T20:00:19.288Z,27.30
2022-08-10T20:03:12.209Z,25.80
2022-08-10T20:06:12.989Z,25.60
2022-08-10T20:09:12.778Z,25.60
2022-08-10T20:11:53.426Z,25.50
2022-08-10T20:14:49.753Z,25.40
2022-08-10T20:17:52.247Z,25.30
2022-08-10T20:20:31.016Z,25.40
2022-08-10T20:23:38.105Z,25.30
2022-08-10T20:26:18.135Z,25.20
2022-08-10T20:29:07.008Z,25.10
2022-08-10T20:31:40.319Z,25.10
2022-08-10T20:34:36.680Z,25.00
2022-08-10T20:37:41.054Z,25.00
2022-08-10T20:40:24.037Z,24.90
2022-08-10T20:43:07.870Z,24.90
2022-08-10T20:46:08.588Z,24.80
2022-08-10T20:48:58.577Z,24.80
2022-08-10T20:51:57.424Z,24.20
2022-08-10T20:54:32.829Z,24.60
2022-08-10T20:57:53.407Z,24.60
2022-08-10T21:00:13.674Z,24.50
2022-08-10T21:03:31.314Z,24.50
2022-08-10T21:06:08.412Z,24.50
2022-08-10T21:08:56.106Z,24.30
2022-08-10T21:11:54.490Z,24.20
2022-08-10T21:14:51.887Z,24.20
2022-08-10T21:17:37.349Z,24.20
2022-08-10T21:20:47.441Z,24.10
2022-08-10T21:23:30.557Z,24.00
2022-08-10T21:26:11.189Z,24.00
2022-08-10T21:29:10.192Z,23.90
2022-08-10T21:31:45.704Z,23.80
2022-08-10T21:34:34.487Z,23.70
2022-08-10T21:37:26.618Z,23.70
2022-08-10T21:40:35.569Z,23.60
2022-08-10T21:43:46.702Z,23.60
2022-08-10T21:46:58.918Z,23.50
2022-08-10T21:50:10.974Z,23.50
2022-08-10T21:53:06.825Z,23.40
2022-08-10T21:56:24.101Z,23.40
2022-08-10T21:59:19.373Z,23.40
2022-08-10T22:02:14.851Z,23.30
2022-08-10T22:05:01.891Z,23.30
2022-08-10T22:07:50.800Z,23.30
2022-08-10T22:10:43.189Z,23.20
2022-08-10T22:13:34.084Z,23.20
2022-08-10T22:16:27.164Z,23.20
2022-08-10T22:19:21.261Z,23.10
2022-08-10T22:22:27.071Z,23.20
2022-08-10T22:25:45.069Z,23.00
2022-08-10T22:28:37.152Z,23.00
2022-08-10T22:31:57.275Z,22.90
2022-08-10T22:35:01.860Z,22.90
2022-08-10T22:38:11.112Z,22.90
2022-08-10T22:41:03.518Z,22.90
2022-08-10T22:43:52.343Z,22.80
2022-08-10T22:46:42.873Z,22.80
2022-08-10T22:49:10.940Z,22.80
2022-08-10T22:52:10.015Z,22.70
2022-08-10T22:55:19.730Z,22.70
2022-08-10T22:58:07.526Z,22.60
2022-08-10T23:00:36.807Z,22.60
2022-08-10T23:03:24.881Z,22.50
2022-08-10T23:06:00.446Z,22.50
2022-08-10T23:08:44.002Z,22.50
2022-08-10T23:11:21.996Z,22.50
2022-08-10T23:13:54.346Z,22.30
2022-08-10T23:16:46.024Z,22.30
2022-08-10T23:19:21.144Z,22.30
2022-08-10T23:22:04.507Z,22.20
2022-08-10T23:25:09.198Z,22.70
2022-08-10T23:27:41.965Z,22.10
2022-08-10T23:30:18.015Z,22.20
2022-08-10T23:32:48.855Z,22.20
2022-08-10T23:36:30.503Z,23.30
2022-08-10T23:38:09.658Z,22.10
2022-08-10T23:40:38.180Z,20.30
2022-08-10T23:43:07.035Z,22.00
2022-08-10T23:45:53.676Z,22.00
2022-08-10T23:48:25.949Z,22.00
2022-08-10T23:51:00.452Z,21.80
2022-08-10T23:53:33.462Z,22.00
2022-08-10T23:56:10.999Z,22.30
2022-08-10T23:58:45.525Z,21.90
